createdAt,value
2023-05-01T12:38:41.304Z,25.28
2023-05-01T12:53:41.361Z,25.40
2023-05-01T13:08:42.501Z,25.58
2023-05-01T13:23:43.038Z,25.92
2023-05-01T13:38:42.856Z,25.67
2023-05-01T13:53:42.957Z,24.96
2023-05-01T14:08:43.407Z,26.62
2023-05-01T14:23:43.612Z,25.99
2023-05-01T14:38:43.684Z,26.84
2023-05-01T14:53:43.812Z,28.09
2023-05-01T15:08:44.001Z,28.29
2023-05-01T15:23:44.100Z,27.00
2023-05-01T15:38:44.133Z,25.52
2023-05-01T15:53:44.215Z,24.28
2023-05-01T16:08:44.332Z,23.95
2023-05-01T16:23:44.407Z,23.16
2023-05-01T16:38:44.551Z,22.15
2023-05-01T16:53:44.601Z,21.04
2023-05-01T17:08:44.877Z,20.18
2023-05-01T17:23:44.775Z,19.43
2023-05-01T17:38:44.972Z,18.69
2023-05-01T17:53:44.956Z,17.89
2023-05-01T18:08:45.582Z,17.11
2023-05-01T18:23:47.806Z,16.17
2023-05-01T18:38:49.792Z,15.47
2023-05-01T18:53:49.918Z,14.77
2023-05-01T19:08:49.923Z,14.04
2023-05-01T19:23:50.004Z,13.55
2023-05-01T19:38:50.192Z,12.92
2023-05-01T19:53:50.755Z,12.50
2023-05-01T20:08:50.780Z,12.04
2023-05-01T20:23:51.237Z,11.64
2023-05-01T20:38:51.109Z,11.58
2023-05-01T20:53:51.154Z,11.32
2023-05-01T21:08:51.303Z,11.14
2023-05-01T21:23:51.362Z,11.07
2023-05-01T21:38:51.523Z,11.07
2023-05-01T21:53:51.607Z,10.92
2023-05-01T22:08:51.722Z,10.88
2023-05-01T22:23:52.340Z,10.48
2023-05-01T22:38:52.418Z,10.40
2023-05-01T22:53:52.543Z,10.12
2023-05-01T23:08:53.763Z,9.91
2023-05-01T23:23:53.815Z,9.69
2023-05-01T23:38:53.886Z,9.60
2023-05-01T23:53:53.937Z,9.33
